sensor_id;sensor_type;location;lat;lon;timestamp;noise_LAeq;noise_LA_min;noise_LA_max;noise_LA01;noise_LA95
60031;Laerm;45901;47.600;9.890;2023-05-10T00:02:14;40.54;38.05;45.54;;
60031;Laerm;45901;47.600;9.890;2023-05-10T00:04:42;40.27;38.05;41.89;;
60031;Laerm;45901;47.600;9.890;2023-05-10T00:07:09;40.23;37.88;42.03;;
60031;Laerm;45901;47.600;9.890;2023-05-10T00:09:37;40.21;37.52;42.35;;
60031;Laerm;45901;47.600;9.890;2023-05-10T00:12:05;40.37;37.52;43.29;;
60031;Laerm;45901;47.600;9.890;2023-05-10T00:14:33;40.22;37.12;41.68;;
60031;Laerm;45901;47.600;9.890;2023-05-10T00:17:00;41.87;35.59;72.93;;
60031;Laerm;45901;47.600;9.890;2023-05-10T00:19:29;40.21;38.05;42.09;;
60031;Laerm;45901;47.600;9.890;2023-05-10T00:21:57;40.29;38.37;42.03;;
60031;Laerm;45901;47.600;9.890;2023-05-10T00:24:24;40.24;37.88;41.96;;
60031;Laerm;45901;47.600;9.890;2023-05-10T00:26:51;40.29;37.70;41.89;;
60031;Laerm;45901;47.600;9.890;2023-05-10T00:29:19;40.33;37.52;42.09;;
60031;Laerm;45901;47.600;9.890;2023-05-10T00:31:46;40.50;38.52;43.97;;
60031;Laerm;45901;47.600;9.890;2023-05-10T00:34:14;41.51;39.08;44.23;;
60031;Laerm;45901;47.600;9.890;2023-05-10T00:36:42;41.46;39.08;44.31;;
60031;Laerm;45901;47.600;9.890;2023-05-10T00:39:10;41.20;39.34;43.00;;
60031;Laerm;45901;47.600;9.890;2023-05-10T00:41:38;41.22;38.81;43.39;;
60031;Laerm;45901;47.600;9.890;2023-05-10T00:44:05;41.27;38.95;46.18;;
60031;Laerm;45901;47.600;9.890;2023-05-10T00:46:33;44.92;40.13;50.80;;
60031;Laerm;45901;47.600;9.890;2023-05-10T00:49:00;43.30;39.46;49.74;;
60031;Laerm;45901;47.600;9.890;2023-05-10T00:51:28;40.76;38.37;42.88;;
60031;Laerm;45901;47.600;9.890;2023-05-10T00:53:58;40.58;38.05;53.49;;
60031;Laerm;45901;47.600;9.890;2023-05-10T00:56:26;40.35;38.21;50.67;;
60031;Laerm;45901;47.600;9.890;2023-05-10T00:58:55;40.30;37.52;48.64;;
60031;Laerm;45901;47.600;9.890;2023-05-10T01:01:23;40.32;37.88;47.38;;
60031;Laerm;45901;47.600;9.890;2023-05-10T01:03:51;40.26;38.05;42.09;;
60031;Laerm;45901;47.600;9.890;2023-05-10T01:06:19;40.48;37.70;42.16;;
60031;Laerm;45901;47.600;9.890;2023-05-10T01:08:47;40.50;38.05;42.41;;
60031;Laerm;45901;47.600;9.890;2023-05-10T01:11:15;41.00;38.52;45.97;;
60031;Laerm;45901;47.600;9.890;2023-05-10T01:13:43;41.78;38.81;69.70;;
60031;Laerm;45901;47.600;9.890;2023-05-10T01:16:14;40.98;38.37;55.09;;
60031;Laerm;45901;47.600;9.890;2023-05-10T01:18:42;41.11;38.67;43.39;;
60031;Laerm;45901;47.600;9.890;2023-05-10T01:21:22;41.53;38.37;56.61;;
60031;Laerm;45901;47.600;9.890;2023-05-10T01:24:30;41.48;38.37;44.31;;
60031;Laerm;45901;47.600;9.890;2023-05-10T01:31:05;41.99;38.67;44.65;;
60031;Laerm;45901;47.600;9.890;2023-05-10T01:33:41;42.21;39.21;45.33;;
60031;Laerm;45901;47.600;9.890;2023-05-10T01:36:16;42.06;38.95;44.15;;
60031;Laerm;45901;47.600;9.890;2023-05-10T01:38:57;42.05;38.95;65.54;;
60031;Laerm;45901;47.600;9.890;2023-05-10T01:41:36;40.67;38.37;43.94;;
60031;Laerm;45901;47.600;9.890;2023-05-10T01:44:16;40.01;37.32;41.96;;
60031;Laerm;45901;47.600;9.890;2023-05-10T01:46:48;40.27;36.69;64.95;;
60031;Laerm;45901;47.600;9.890;2023-05-10T01:49:23;39.93;37.52;42.93;;
60031;Laerm;45901;47.600;9.890;2023-05-10T01:51:57;39.75;37.12;49.14;;
60031;Laerm;45901;47.600;9.890;2023-05-10T01:54:28;39.78;37.52;42.16;;
60031;Laerm;45901;47.600;9.890;2023-05-10T01:57:06;39.88;37.12;41.68;;
60031;Laerm;45901;47.600;9.890;2023-05-10T01:59:35;39.95;37.88;41.75;;
60031;Laerm;45901;47.600;9.890;2023-05-10T02:02:07;39.90;37.70;44.94;;
60031;Laerm;45901;47.600;9.890;2023-05-10T02:04:39;39.76;37.52;41.53;;
60031;Laerm;45901;47.600;9.890;2023-05-10T02:07:09;39.69;37.32;41.30;;
60031;Laerm;45901;47.600;9.890;2023-05-10T02:09:37;39.77;37.32;45.20;;
60031;Laerm;45901;47.600;9.890;2023-05-10T02:12:06;39.69;37.52;41.53;;
60031;Laerm;45901;47.600;9.890;2023-05-10T02:14:36;39.76;37.12;45.14;;
60031;Laerm;45901;47.600;9.890;2023-05-10T02:17:05;39.91;37.52;45.30;;
60031;Laerm;45901;47.600;9.890;2023-05-10T02:19:36;39.85;37.70;41.61;;
60031;Laerm;45901;47.600;9.890;2023-05-10T02:22:06;39.97;38.05;44.43;;
60031;Laerm;45901;47.600;9.890;2023-05-10T02:24:36;40.14;38.05;42.03;;
60031;Laerm;45901;47.600;9.890;2023-05-10T02:27:06;40.16;38.05;43.29;;
60031;Laerm;45901;47.600;9.890;2023-05-10T02:29:35;40.10;37.88;43.68;;
60031;Laerm;45901;47.600;9.890;2023-05-10T02:32:04;39.72;36.69;42.88;;
60031;Laerm;45901;47.600;9.890;2023-05-10T02:34:33;39.55;36.69;41.46;;
60031;Laerm;45901;47.600;9.890;2023-05-10T02:37:03;39.59;37.12;41.88;;
60031;Laerm;45901;47.600;9.890;2023-05-10T02:39:32;39.81;37.52;55.29;;
60031;Laerm;45901;47.600;9.890;2023-05-10T02:42:01;39.57;37.32;41.53;;
60031;Laerm;45901;47.600;9.890;2023-05-10T02:44:29;39.76;37.52;41.68;;
60031;Laerm;45901;47.600;9.890;2023-05-10T02:46:58;39.79;37.70;42.47;;
60031;Laerm;45901;47.600;9.890;2023-05-10T02:49:26;39.80;37.32;43.58;;
60031;Laerm;45901;47.600;9.890;2023-05-10T02:52:00;40.05;37.88;41.96;;
60031;Laerm;45901;47.600;9.890;2023-05-10T02:54:34;39.70;37.12;41.38;;
60031;Laerm;45901;47.600;9.890;2023-05-10T02:57:06;39.74;37.52;44.83;;
60031;Laerm;45901;47.600;9.890;2023-05-10T02:59:34;39.56;37.12;41.75;;
60031;Laerm;45901;47.600;9.890;2023-05-10T03:02:01;39.70;37.52;44.90;;
60031;Laerm;45901;47.600;9.890;2023-05-10T03:04:32;39.68;37.52;41.96;;
60031;Laerm;45901;47.600;9.890;2023-05-10T03:06:59;39.69;36.91;41.61;;
60031;Laerm;45901;47.600;9.890;2023-05-10T03:09:27;40.26;37.88;45.57;;
60031;Laerm;45901;47.600;9.890;2023-05-10T03:12:04;39.91;37.32;42.29;;
60031;Laerm;45901;47.600;9.890;2023-05-10T03:14:48;39.79;37.12;42.22;;
60031;Laerm;45901;47.600;9.890;2023-05-10T03:17:23;39.88;37.12;43.90;;
60031;Laerm;45901;47.600;9.890;2023-05-10T03:19:55;40.16;37.53;44.27;;
60031;Laerm;45901;47.600;9.890;2023-05-10T03:22:30;39.61;37.52;41.89;;
60031;Laerm;45901;47.600;9.890;2023-05-10T03:24:58;40.06;37.32;62.26;;
60031;Laerm;45901;47.600;9.890;2023-05-10T03:27:30;39.69;37.12;49.40;;
60031;Laerm;45901;47.600;9.890;2023-05-10T03:29:58;39.44;36.91;42.29;;
60031;Laerm;45901;47.600;9.890;2023-05-10T03:32:26;39.57;37.12;43.90;;
60031;Laerm;45901;47.600;9.890;2023-05-10T03:34:54;39.81;36.20;48.42;;
60031;Laerm;45901;47.600;9.890;2023-05-10T03:37:21;39.52;37.32;42.03;;
60031;Laerm;45901;47.600;9.890;2023-05-10T03:39:49;39.52;37.12;41.46;;
60031;Laerm;45901;47.600;9.890;2023-05-10T03:42:17;39.51;36.45;44.15;;
60031;Laerm;45901;47.600;9.890;2023-05-10T03:44:46;39.41;37.12;43.19;;
60031;Laerm;45901;47.600;9.890;2023-05-10T03:47:15;39.55;36.45;42.59;;
60031;Laerm;45901;47.600;9.890;2023-05-10T03:49:42;39.37;36.45;42.41;;
60031;Laerm;45901;47.600;9.890;2023-05-10T03:52:09;39.41;36.77;42.16;;
60031;Laerm;45901;47.600;9.890;2023-05-10T03:54:37;39.36;36.69;41.46;;
60031;Laerm;45901;47.600;9.890;2023-05-10T03:57:04;39.39;36.91;41.22;;
60031;Laerm;45901;47.600;9.890;2023-05-10T03:59:31;39.43;36.69;42.35;;
60031;Laerm;45901;47.600;9.890;2023-05-10T04:02:00;39.55;37.12;43.86;;
60031;Laerm;45901;47.600;9.890;2023-05-10T04:04:28;39.48;36.77;42.09;;
60031;Laerm;45901;47.600;9.890;2023-05-10T04:06:55;39.30;37.12;41.53;;
60031;Laerm;45901;47.600;9.890;2023-05-10T04:09:23;39.38;36.69;49.51;;
60031;Laerm;45901;47.600;9.890;2023-05-10T04:11:51;39.28;36.91;41.53;;
60031;Laerm;45901;47.600;9.890;2023-05-10T04:14:18;39.31;36.45;41.14;;
60031;Laerm;45901;47.600;9.890;2023-05-10T04:16:45;39.27;36.69;42.93;;
60031;Laerm;45901;47.600;9.890;2023-05-10T04:19:14;40.23;37.12;50.25;;
60031;Laerm;45901;47.600;9.890;2023-05-10T04:21:42;40.54;37.70;42.22;;
60031;Laerm;45901;47.600;9.890;2023-05-10T04:24:09;40.62;38.37;42.59;;
60031;Laerm;45901;47.600;9.890;2023-05-10T04:26:37;40.49;38.37;42.35;;
60031;Laerm;45901;47.600;9.890;2023-05-10T04:29:04;40.83;37.70;62.81;;
60031;Laerm;45901;47.600;9.890;2023-05-10T04:31:31;40.77;37.70;46.87;;
60031;Laerm;45901;47.600;9.890;2023-05-10T04:34:00;40.82;38.05;43.14;;
60031;Laerm;45901;47.600;9.890;2023-05-10T04:36:28;41.63;38.81;44.58;;
60031;Laerm;45901;47.600;9.890;2023-05-10T04:38:56;42.01;39.08;46.18;;
60031;Laerm;45901;47.600;9.890;2023-05-10T04:41:23;41.42;38.52;43.58;;
60031;Laerm;45901;47.600;9.890;2023-05-10T04:43:51;41.12;38.52;43.24;;
60031;Laerm;45901;47.600;9.890;2023-05-10T04:46:18;41.03;38.67;42.98;;
60031;Laerm;45901;47.600;9.890;2023-05-10T04:48:46;40.48;37.88;43.81;;
60031;Laerm;45901;47.600;9.890;2023-05-10T04:51:14;40.44;37.70;42.41;;
60031;Laerm;45901;47.600;9.890;2023-05-10T04:53:42;40.45;37.70;51.02;;
60031;Laerm;45901;47.600;9.890;2023-05-10T04:56:10;40.50;37.52;42.53;;
60031;Laerm;45901;47.600;9.890;2023-05-10T04:58:37;40.45;38.05;43.39;;
60031;Laerm;45901;47.600;9.890;2023-05-10T05:01:08;40.65;37.88;44.15;;
60031;Laerm;45901;47.600;9.890;2023-05-10T05:03:36;40.36;38.21;42.58;;
60031;Laerm;45901;47.600;9.890;2023-05-10T05:06:04;40.46;38.37;42.59;;
60031;Laerm;45901;47.600;9.890;2023-05-10T05:08:32;40.48;38.21;42.41;;
60031;Laerm;45901;47.600;9.890;2023-05-10T05:11:00;40.45;38.05;62.56;;
60031;Laerm;45901;47.600;9.890;2023-05-10T05:13:28;40.21;37.88;49.47;;
60031;Laerm;45901;47.600;9.890;2023-05-10T05:15:55;40.30;37.88;44.87;;
60031;Laerm;45901;47.600;9.890;2023-05-10T05:18:22;40.18;37.70;42.59;;
60031;Laerm;45901;47.600;9.890;2023-05-10T05:20:50;40.53;38.21;44.31;;
60031;Laerm;45901;47.600;9.890;2023-05-10T05:23:17;40.15;38.05;41.89;;
60031;Laerm;45901;47.600;9.890;2023-05-10T05:25:47;40.10;37.12;42.82;;
60031;Laerm;45901;47.600;9.890;2023-05-10T05:28:15;40.18;37.88;42.76;;
60031;Laerm;45901;47.600;9.890;2023-05-10T05:30:43;40.25;37.52;42.41;;
60031;Laerm;45901;47.600;9.890;2023-05-10T05:33:10;40.13;37.88;41.96;;
60031;Laerm;45901;47.600;9.890;2023-05-10T05:35:38;40.24;37.70;42.76;;
60031;Laerm;45901;47.600;9.890;2023-05-10T05:38:05;40.31;38.21;42.22;;
60031;Laerm;45901;47.600;9.890;2023-05-10T05:40:33;40.34;36.91;43.14;;
60031;Laerm;45901;47.600;9.890;2023-05-10T05:43:00;40.74;38.32;44.62;;
60031;Laerm;45901;47.600;9.890;2023-05-10T05:45:29;40.25;37.12;42.16;;
60031;Laerm;45901;47.600;9.890;2023-05-10T05:47:57;40.81;37.52;43.94;;
60031;Laerm;45901;47.600;9.890;2023-05-10T05:50:24;40.58;38.05;45.30;;
60031;Laerm;45901;47.600;9.890;2023-05-10T05:52:52;40.17;37.32;43.34;;
60031;Laerm;45901;47.600;9.890;2023-05-10T05:55:19;39.93;37.88;41.89;;
60031;Laerm;45901;47.600;9.890;2023-05-10T05:57:47;39.88;37.12;42.41;;
60031;Laerm;45901;47.600;9.890;2023-05-10T06:00:15;40.02;37.12;44.35;;
60031;Laerm;45901;47.600;9.890;2023-05-10T06:02:44;40.03;37.32;45.07;;
60031;Laerm;45901;47.600;9.890;2023-05-10T06:05:12;39.94;37.88;45.89;;
60031;Laerm;45901;47.600;9.890;2023-05-10T06:07:40;40.26;37.70;52.32;;
60031;Laerm;45901;47.600;9.890;2023-05-10T06:10:08;40.06;37.32;51.24;;
60031;Laerm;45901;47.600;9.890;2023-05-10T06:12:35;39.97;37.88;43.24;;
60031;Laerm;45901;47.600;9.890;2023-05-10T06:15:04;39.92;37.52;45.04;;
60031;Laerm;45901;47.600;9.890;2023-05-10T06:17:31;42.45;37.88;49.94;;
60031;Laerm;45901;47.600;9.890;2023-05-10T06:20:00;40.03;37.88;43.49;;
60031;Laerm;45901;47.600;9.890;2023-05-10T06:22:27;40.18;37.52;42.35;;
60031;Laerm;45901;47.600;9.890;2023-05-10T06:24:55;43.14;38.37;49.89;;
60031;Laerm;45901;47.600;9.890;2023-05-10T06:27:22;43.83;40.03;49.43;;
60031;Laerm;45901;47.600;9.890;2023-05-10T06:29:50;40.85;36.20;64.93;;
60031;Laerm;45901;47.600;9.890;2023-05-10T06:32:17;40.01;37.52;46.05;;
60031;Laerm;45901;47.600;9.890;2023-05-10T06:34:45;39.98;37.52;44.73;;
60031;Laerm;45901;47.600;9.890;2023-05-10T06:37:14;39.97;36.91;44.19;;
60031;Laerm;45901;47.600;9.890;2023-05-10T06:39:41;40.13;37.32;42.98;;
60031;Laerm;45901;47.600;9.890;2023-05-10T06:42:08;39.93;37.52;42.76;;
60031;Laerm;45901;47.600;9.890;2023-05-10T06:44:36;39.93;37.87;42.98;;
60031;Laerm;45901;47.600;9.890;2023-05-10T06:47:03;39.96;37.32;47.36;;
60031;Laerm;45901;47.600;9.890;2023-05-10T06:49:31;39.96;36.91;43.44;;
60031;Laerm;45901;47.600;9.890;2023-05-10T06:51:58;40.01;37.70;43.24;;
60031;Laerm;45901;47.600;9.890;2023-05-10T06:54:27;40.04;37.70;44.49;;
60031;Laerm;45901;47.600;9.890;2023-05-10T06:56:54;39.95;37.52;46.43;;
60031;Laerm;45901;47.600;9.890;2023-05-10T06:59:22;39.96;37.52;43.24;;
60031;Laerm;45901;47.600;9.890;2023-05-10T07:01:49;40.28;37.70;45.45;;
60031;Laerm;45901;47.600;9.890;2023-05-10T07:04:17;39.95;37.32;45.01;;
60031;Laerm;45901;47.600;9.890;2023-05-10T07:06:44;40.03;37.52;44.58;;
60031;Laerm;45901;47.600;9.890;2023-05-10T07:09:12;40.11;37.70;43.68;;
60031;Laerm;45901;47.600;9.890;2023-05-10T07:11:42;40.58;37.52;49.07;;
60031;Laerm;45901;47.600;9.890;2023-05-10T07:14:09;41.96;39.81;45.25;;
60031;Laerm;45901;47.600;9.890;2023-05-10T07:16:37;41.96;39.92;44.69;;
60031;Laerm;45901;47.600;9.890;2023-05-10T07:19:04;41.95;40.33;45.30;;
60031;Laerm;45901;47.600;9.890;2023-05-10T07:21:32;42.00;38.21;48.69;;
60031;Laerm;45901;47.600;9.890;2023-05-10T07:24:00;40.64;38.18;47.72;;
60031;Laerm;45901;47.600;9.890;2023-05-10T07:26:28;40.29;37.70;44.11;;
60031;Laerm;45901;47.600;9.890;2023-05-10T07:28:57;40.15;37.52;43.94;;
60031;Laerm;45901;47.600;9.890;2023-05-10T07:31:24;40.27;37.88;44.47;;
60031;Laerm;45901;47.600;9.890;2023-05-10T07:33:52;40.06;37.88;42.29;;
60031;Laerm;45901;47.600;9.890;2023-05-10T07:36:19;40.38;37.52;42.76;;
60031;Laerm;45901;47.600;9.890;2023-05-10T07:38:47;40.48;38.21;50.48;;
60031;Laerm;45901;47.600;9.890;2023-05-10T07:41:15;40.49;38.21;45.42;;
60031;Laerm;45901;47.600;9.890;2023-05-10T07:43:42;40.15;37.32;42.47;;
60031;Laerm;45901;47.600;9.890;2023-05-10T07:46:11;40.52;38.32;45.51;;
60031;Laerm;45901;47.600;9.890;2023-05-10T07:48:38;40.16;37.12;42.76;;
60031;Laerm;45901;47.600;9.890;2023-05-10T07:51:06;40.29;38.05;43.29;;
60031;Laerm;45901;47.600;9.890;2023-05-10T07:53:35;40.54;38.37;55.55;;
60031;Laerm;45901;47.600;9.890;2023-05-10T07:56:22;40.74;35.94;67.43;;
60031;Laerm;45901;47.600;9.890;2023-05-10T07:58:51;40.40;37.88;49.75;;
60031;Laerm;45901;47.600;9.890;2023-05-10T08:01:20;41.49;37.88;67.03;;
60031;Laerm;45901;47.600;9.890;2023-05-10T08:03:47;40.24;38.05;49.35;;
60031;Laerm;45901;47.600;9.890;2023-05-10T08:06:15;40.20;38.05;42.71;;
60031;Laerm;45901;47.600;9.890;2023-05-10T08:08:42;40.70;38.52;43.90;;
60031;Laerm;45901;47.600;9.890;2023-05-10T08:11:11;40.54;38.52;43.72;;
60031;Laerm;45901;47.600;9.890;2023-05-10T08:13:38;40.33;38.05;42.03;;
60031;Laerm;45901;47.600;9.890;2023-05-10T08:16:06;40.55;38.37;45.01;;
60031;Laerm;45901;47.600;9.890;2023-05-10T08:18:35;40.37;37.70;42.95;;
60031;Laerm;45901;47.600;9.890;2023-05-10T08:21:02;39.97;37.32;42.47;;
60031;Laerm;45901;47.600;9.890;2023-05-10T08:23:29;40.36;37.88;43.86;;
60031;Laerm;45901;47.600;9.890;2023-05-10T08:25:57;40.11;37.88;42.16;;
60031;Laerm;45901;47.600;9.890;2023-05-10T08:28:24;41.33;37.70;47.24;;
60031;Laerm;45901;47.600;9.890;2023-05-10T08:30:52;41.99;38.37;48.20;;
60031;Laerm;45901;47.600;9.890;2023-05-10T08:33:19;42.14;38.81;48.31;;
60031;Laerm;45901;47.600;9.890;2023-05-10T08:35:48;41.26;38.81;47.65;;
60031;Laerm;45901;47.600;9.890;2023-05-10T08:38:16;44.71;40.98;52.98;;
60031;Laerm;45901;47.600;9.890;2023-05-10T08:40:44;42.89;39.46;49.38;;
60031;Laerm;45901;47.600;9.890;2023-05-10T08:43:13;40.76;38.21;48.45;;
60031;Laerm;45901;47.600;9.890;2023-05-10T08:45:43;40.44;38.37;43.58;;
60031;Laerm;45901;47.600;9.890;2023-05-10T08:48:11;40.07;37.88;42.03;;
60031;Laerm;45901;47.600;9.890;2023-05-10T08:50:40;40.29;37.70;49.60;;
60031;Laerm;45901;47.600;9.890;2023-05-10T08:53:13;40.49;37.88;48.55;;
60031;Laerm;45901;47.600;9.890;2023-05-10T08:55:41;40.44;38.21;43.29;;
60031;Laerm;45901;47.600;9.890;2023-05-10T08:58:09;40.19;37.70;51.44;;
60031;Laerm;45901;47.600;9.890;2023-05-10T09:00:37;40.33;37.88;48.29;;
60031;Laerm;45901;47.600;9.890;2023-05-10T09:03:05;40.06;37.70;43.14;;
60031;Laerm;45901;47.600;9.890;2023-05-10T09:05:33;40.17;37.70;45.23;;
60031;Laerm;45901;47.600;9.890;2023-05-10T09:08:00;40.42;37.88;42.93;;
60031;Laerm;45901;47.600;9.890;2023-05-10T09:10:30;40.18;38.05;41.96;;
60031;Laerm;45901;47.600;9.890;2023-05-10T09:12:58;40.45;37.88;42.88;;
60031;Laerm;45901;47.600;9.890;2023-05-10T09:15:26;40.33;38.05;44.23;;
60031;Laerm;45901;47.600;9.890;2023-05-10T09:17:54;40.37;38.05;42.65;;
60031;Laerm;45901;47.600;9.890;2023-05-10T09:20:24;40.04;37.70;43.04;;
60031;Laerm;45901;47.600;9.890;2023-05-10T09:22:51;40.21;37.88;42.82;;
60031;Laerm;45901;47.600;9.890;2023-05-10T09:25:19;40.06;38.05;42.16;;
60031;Laerm;45901;47.600;9.890;2023-05-10T09:27:49;39.99;37.70;48.52;;
60031;Laerm;45901;47.600;9.890;2023-05-10T09:30:22;40.37;38.05;44.15;;
60031;Laerm;45901;47.600;9.890;2023-05-10T09:32:50;40.50;37.70;42.71;;
60031;Laerm;45901;47.600;9.890;2023-05-10T09:35:20;40.93;38.21;45.23;;
60031;Laerm;45901;47.600;9.890;2023-05-10T09:37:51;40.54;37.88;45.23;;
60031;Laerm;45901;47.600;9.890;2023-05-10T09:40:21;40.21;38.05;42.76;;
60031;Laerm;45901;47.600;9.890;2023-05-10T09:42:55;40.00;38.05;42.65;;
60031;Laerm;45901;47.600;9.890;2023-05-10T09:45:26;40.44;38.21;53.85;;
60031;Laerm;45901;47.600;9.890;2023-05-10T09:47:54;40.24;37.70;43.39;;
60031;Laerm;45901;47.600;9.890;2023-05-10T09:50:23;40.92;38.05;67.78;;
60031;Laerm;45901;47.600;9.890;2023-05-10T09:52:52;40.36;38.05;43.94;;
60031;Laerm;45901;47.600;9.890;2023-05-10T09:55:22;40.47;38.05;44.39;;
60031;Laerm;45901;47.600;9.890;2023-05-10T09:58:00;40.10;38.05;47.44;;
60031;Laerm;45901;47.600;9.890;2023-05-10T10:00:33;40.53;37.88;49.07;;
60031;Laerm;45901;47.600;9.890;2023-05-10T10:03:03;40.57;38.05;47.04;;
60031;Laerm;45901;47.600;9.890;2023-05-10T10:05:31;40.51;37.70;45.20;;
60031;Laerm;45901;47.600;9.890;2023-05-10T10:07:59;40.00;38.05;44.47;;
60031;Laerm;45901;47.600;9.890;2023-05-10T10:10:28;40.14;37.88;43.54;;
60031;Laerm;45901;47.600;9.890;2023-05-10T10:12:56;40.08;37.70;43.34;;
60031;Laerm;45901;47.600;9.890;2023-05-10T10:15:25;40.17;37.52;45.33;;
60031;Laerm;45901;47.600;9.890;2023-05-10T10:17:53;40.12;37.32;42.85;;
60031;Laerm;45901;47.600;9.890;2023-05-10T10:20:22;40.05;37.88;47.59;;
60031;Laerm;45901;47.600;9.890;2023-05-10T10:22:50;40.62;37.70;55.55;;
60031;Laerm;45901;47.600;9.890;2023-05-10T10:25:19;40.73;38.21;54.14;;
60031;Laerm;45901;47.600;9.890;2023-05-10T10:27:58;42.05;37.70;50.18;;
60031;Laerm;45901;47.600;9.890;2023-05-10T10:30:35;41.30;39.34;49.10;;
60031;Laerm;45901;47.600;9.890;2023-05-10T10:33:40;41.07;39.08;46.15;;
60031;Laerm;45901;47.600;9.890;2023-05-10T10:36:16;41.15;39.08;44.31;;
60031;Laerm;45901;47.600;9.890;2023-05-10T10:39:00;41.08;39.21;46.76;;
60031;Laerm;45901;47.600;9.890;2023-05-10T10:41:34;41.20;38.37;48.29;;
60031;Laerm;45901;47.600;9.890;2023-05-10T10:44:33;41.73;38.95;46.59;;
60031;Laerm;45901;47.600;9.890;2023-05-10T10:47:28;42.39;38.81;60.46;;
60031;Laerm;45901;47.600;9.890;2023-05-10T10:50:06;41.64;38.05;48.08;;
60031;Laerm;45901;47.600;9.890;2023-05-10T10:52:36;40.02;37.53;44.15;;
60031;Laerm;45901;47.600;9.890;2023-05-10T10:55:06;40.25;37.88;52.00;;
60031;Laerm;45901;47.600;9.890;2023-05-10T10:57:44;40.45;38.05;45.27;;
60031;Laerm;45901;47.600;9.890;2023-05-10T11:00:26;40.89;38.21;47.34;;
60031;Laerm;45901;47.600;9.890;2023-05-10T11:02:59;40.37;37.70;49.15;;
60031;Laerm;45901;47.600;9.890;2023-05-10T11:05:41;40.19;37.70;45.01;;
60031;Laerm;45901;47.600;9.890;2023-05-10T11:08:18;40.88;38.37;45.60;;
60031;Laerm;45901;47.600;9.890;2023-05-10T11:11:02;40.54;37.88;44.69;;
60031;Laerm;45901;47.600;9.890;2023-05-10T11:13:31;40.77;38.05;45.48;;
60031;Laerm;45901;47.600;9.890;2023-05-10T11:16:11;40.13;37.88;46.66;;
60031;Laerm;45901;47.600;9.890;2023-05-10T11:18:51;40.22;37.70;45.33;;
60031;Laerm;45901;47.600;9.890;2023-05-10T11:21:19;40.20;38.18;44.27;;
60031;Laerm;45901;47.600;9.890;2023-05-10T11:23:52;40.10;37.70;50.21;;
60031;Laerm;45901;47.600;9.890;2023-05-10T11:26:23;40.65;38.21;44.27;;
60031;Laerm;45901;47.600;9.890;2023-05-10T11:28:53;40.30;38.21;48.10;;
60031;Laerm;45901;47.600;9.890;2023-05-10T11:31:22;40.44;38.05;54.82;;
60031;Laerm;45901;47.600;9.890;2023-05-10T11:33:55;40.46;38.21;43.94;;
60031;Laerm;45901;47.600;9.890;2023-05-10T11:36:26;46.16;38.37;55.95;;
60031;Laerm;45901;47.600;9.890;2023-05-10T11:38:55;45.18;39.08;53.53;;
60031;Laerm;45901;47.600;9.890;2023-05-10T11:41:24;40.67;38.37;46.91;;
60031;Laerm;45901;47.600;9.890;2023-05-10T11:43:53;40.80;38.81;44.51;;
60031;Laerm;45901;47.600;9.890;2023-05-10T11:46:24;40.79;38.60;44.54;;
60031;Laerm;45901;47.600;9.890;2023-05-10T11:48:58;41.51;39.34;45.72;;
60031;Laerm;45901;47.600;9.890;2023-05-10T11:51:28;40.65;38.21;49.73;;
60031;Laerm;45901;47.600;9.890;2023-05-10T11:53:56;41.41;37.52;70.62;;
60031;Laerm;45901;47.600;9.890;2023-05-10T11:56:25;40.54;37.32;56.34;;
60031;Laerm;45901;47.600;9.890;2023-05-10T11:58:54;40.21;37.70;48.13;;
60031;Laerm;45901;47.600;9.890;2023-05-10T12:01:23;40.36;37.32;46.23;;
60031;Laerm;45901;47.600;9.890;2023-05-10T12:03:53;40.14;37.32;45.57;;
60031;Laerm;45901;47.600;9.890;2023-05-10T12:06:21;40.49;37.52;45.01;;
60031;Laerm;45901;47.600;9.890;2023-05-10T12:08:49;40.42;37.88;46.84;;
60031;Laerm;45901;47.600;9.890;2023-05-10T12:11:19;40.68;38.21;48.69;;
60031;Laerm;45901;47.600;9.890;2023-05-10T12:13:48;40.50;37.88;44.27;;
60031;Laerm;45901;47.600;9.890;2023-05-10T12:16:20;41.34;34.34;71.83;;
60031;Laerm;45901;47.600;9.890;2023-05-10T12:18:49;40.24;38.05;45.62;;
60031;Laerm;45901;47.600;9.890;2023-05-10T12:21:20;40.14;37.12;43.04;;
60031;Laerm;45901;47.600;9.890;2023-05-10T12:23:50;40.23;38.37;42.71;;
60031;Laerm;45901;47.600;9.890;2023-05-10T12:26:21;40.20;37.70;49.11;;
60031;Laerm;45901;47.600;9.890;2023-05-10T12:28:49;40.17;37.70;50.67;;
60031;Laerm;45901;47.600;9.890;2023-05-10T12:31:16;40.11;37.52;44.07;;
60031;Laerm;45901;47.600;9.890;2023-05-10T12:33:44;40.44;37.88;44.39;;
60031;Laerm;45901;47.600;9.890;2023-05-10T12:36:15;40.42;37.88;46.64;;
60031;Laerm;45901;47.600;9.890;2023-05-10T12:38:45;40.66;38.05;44.39;;
60031;Laerm;45901;47.600;9.890;2023-05-10T12:41:15;40.11;37.70;45.97;;
60031;Laerm;45901;47.600;9.890;2023-05-10T12:43:43;40.13;38.21;44.19;;
60031;Laerm;45901;47.600;9.890;2023-05-10T12:46:13;40.08;38.05;44.58;;
60031;Laerm;45901;47.600;9.890;2023-05-10T12:48:43;40.19;37.70;43.14;;
60031;Laerm;45901;47.600;9.890;2023-05-10T12:51:11;40.63;38.21;44.31;;
60031;Laerm;45901;47.600;9.890;2023-05-10T12:53:43;40.78;38.67;44.69;;
60031;Laerm;45901;47.600;9.890;2023-05-10T12:56:11;40.96;38.67;45.17;;
60031;Laerm;45901;47.600;9.890;2023-05-10T12:58:39;40.68;38.05;43.34;;
60031;Laerm;45901;47.600;9.890;2023-05-10T13:01:06;40.62;38.05;47.14;;
60031;Laerm;45901;47.600;9.890;2023-05-10T13:03:34;41.07;38.52;44.62;;
60031;Laerm;45901;47.600;9.890;2023-05-10T13:06:01;40.40;38.21;44.51;;
60031;Laerm;45901;47.600;9.890;2023-05-10T13:08:29;40.81;38.37;45.94;;
60031;Laerm;45901;47.600;9.890;2023-05-10T13:11:00;40.17;38.21;42.22;;
60031;Laerm;45901;47.600;9.890;2023-05-10T13:13:28;40.20;38.05;42.82;;
60031;Laerm;45901;47.600;9.890;2023-05-10T13:15:55;41.07;38.37;52.38;;
60031;Laerm;45901;47.600;9.890;2023-05-10T13:18:23;40.30;38.05;43.81;;
60031;Laerm;45901;47.600;9.890;2023-05-10T13:20:52;40.69;37.88;51.65;;
60031;Laerm;45901;47.600;9.890;2023-05-10T13:23:20;41.28;38.67;46.05;;
60031;Laerm;45901;47.600;9.890;2023-05-10T13:25:48;41.03;38.21;49.53;;
60031;Laerm;45901;47.600;9.890;2023-05-10T13:28:17;40.84;38.21;45.77;;
60031;Laerm;45901;47.600;9.890;2023-05-10T13:30:44;40.50;38.52;46.07;;
60031;Laerm;45901;47.600;9.890;2023-05-10T13:33:11;40.43;38.21;46.50;;
60031;Laerm;45901;47.600;9.890;2023-05-10T13:35:39;41.05;38.21;47.96;;
60031;Laerm;45901;47.600;9.890;2023-05-10T13:38:06;40.45;38.37;54.56;;
60031;Laerm;45901;47.600;9.890;2023-05-10T13:40:33;40.68;38.05;48.87;;
60031;Laerm;45901;47.600;9.890;2023-05-10T13:43:01;40.26;38.05;45.17;;
60031;Laerm;45901;47.600;9.890;2023-05-10T13:45:30;40.30;37.88;45.72;;
60031;Laerm;45901;47.600;9.890;2023-05-10T13:47:58;40.26;37.88;43.58;;
60031;Laerm;45901;47.600;9.890;2023-05-10T13:50:25;40.26;38.05;41.96;;
60031;Laerm;45901;47.600;9.890;2023-05-10T13:52:52;40.21;37.52;43.14;;
60031;Laerm;45901;47.600;9.890;2023-05-10T13:55:20;40.15;38.21;43.58;;
60031;Laerm;45901;47.600;9.890;2023-05-10T13:57:47;40.68;38.05;48.16;;
60031;Laerm;45901;47.600;9.890;2023-05-10T14:00:15;45.23;38.37;62.26;;
60031;Laerm;45901;47.600;9.890;2023-05-10T14:02:44;43.45;38.37;55.18;;